createdAt,value
2023-04-18T00:00:01.563Z,458.62
2023-04-18T00:00:12.592Z,458.59
2023-04-18T00:00:23.596Z,458.57
2023-04-18T00:00:34.590Z,458.57
2023-04-18T00:00:45.571Z,458.57
2023-04-18T00:00:56.569Z,458.56
2023-04-18T00:01:07.544Z,458.55
2023-04-18T00:01:18.542Z,458.56
2023-04-18T00:01:29.633Z,458.58
2023-04-18T00:01:41.619Z,458.62
2023-04-18T00:01:53.677Z,458.64
2023-04-18T00:02:04.670Z,458.64
2023-04-18T00:02:16.630Z,458.66
2023-04-18T00:02:27.648Z,458.71
2023-04-18T00:02:38.719Z,458.70
2023-04-18T00:02:49.758Z,458.70
2023-04-18T00:03:04.190Z,458.69
2023-04-18T00:03:13.841Z,458.74
2023-04-18T00:03:24.800Z,458.80
2023-04-18T00:03:36.889Z,458.79
2023-04-18T00:03:47.775Z,458.81
2023-04-18T00:03:58.718Z,458.78
2023-04-18T00:04:10.824Z,458.80
2023-04-18T00:04:22.082Z,458.79
2023-04-18T00:04:32.575Z,458.81
2023-04-18T00:04:43.662Z,458.83
2023-04-18T00:04:54.709Z,458.93
2023-04-18T00:05:05.631Z,459.02
2023-04-18T00:05:16.659Z,459.03
2023-04-18T00:05:28.618Z,459.00
2023-04-18T00:05:40.593Z,458.91
2023-04-18T00:05:51.589Z,458.92
2023-04-18T00:06:02.566Z,458.96
2023-04-18T00:06:13.583Z,459.03
2023-04-18T00:06:24.582Z,459.02
2023-04-18T00:06:35.570Z,459.00
2023-04-18T00:06:46.554Z,458.99
2023-04-18T00:06:57.583Z,458.96
2023-04-18T00:07:08.576Z,458.95
2023-04-18T00:07:19.584Z,458.95
2023-04-18T00:07:30.568Z,458.92
2023-04-18T00:07:41.553Z,458.98
2023-04-18T00:07:52.681Z,458.98
2023-04-18T00:08:04.593Z,459.00
2023-04-18T00:08:15.595Z,458.98
2023-04-18T00:08:26.573Z,458.89
2023-04-18T00:08:37.558Z,458.95
2023-04-18T00:08:48.577Z,458.95
2023-04-18T00:08:59.659Z,458.98
2023-04-18T00:09:10.608Z,459.01
2023-04-18T00:09:22.716Z,458.94
2023-04-18T00:09:33.616Z,458.89
2023-04-18T00:09:45.633Z,458.89
2023-04-18T00:09:57.605Z,458.89
2023-04-18T00:10:08.591Z,458.88
2023-04-18T00:10:19.589Z,458.88
2023-04-18T00:10:30.577Z,458.88
2023-04-18T00:10:41.568Z,458.86
2023-04-18T00:10:52.558Z,458.84
2023-04-18T00:11:03.557Z,458.86
2023-04-18T00:11:14.628Z,458.80
2023-04-18T00:11:26.601Z,458.74
2023-04-18T00:11:37.580Z,458.69
2023-04-18T00:11:48.587Z,458.68
2023-04-18T00:11:59.551Z,458.62
2023-04-18T00:12:10.645Z,458.58
2023-04-18T00:12:22.593Z,458.59
2023-04-18T00:12:33.605Z,458.55
2023-04-18T00:12:44.600Z,458.58
2023-04-18T00:12:55.603Z,458.62
2023-04-18T00:13:06.591Z,458.66
2023-04-18T00:13:17.606Z,458.63
2023-04-18T00:13:28.608Z,458.63
2023-04-18T00:13:39.602Z,458.63
2023-04-18T00:13:50.624Z,458.59
2023-04-18T00:14:01.617Z,458.58
2023-04-18T00:14:13.693Z,458.52
2023-04-18T00:14:25.595Z,458.57
2023-04-18T00:14:36.585Z,458.63
2023-04-18T00:14:47.590Z,458.67
2023-04-18T00:14:58.587Z,458.65
2023-04-18T00:15:09.605Z,458.63
2023-04-18T00:15:20.609Z,458.81
2023-04-18T00:15:31.595Z,458.83
2023-04-18T00:15:42.593Z,458.81
2023-04-18T00:15:53.593Z,458.77
2023-04-18T00:16:04.584Z,458.75
2023-04-18T00:16:15.616Z,458.75
2023-04-18T00:16:26.709Z,458.84
2023-04-18T00:16:38.638Z,458.89
2023-04-18T00:16:49.604Z,458.91
2023-04-18T00:17:01.631Z,458.96
2023-04-18T00:17:12.608Z,458.97
2023-04-18T00:17:23.646Z,458.96
2023-04-18T00:17:35.671Z,459.04
2023-04-18T00:17:47.601Z,459.06
2023-04-18T00:17:58.626Z,459.09
2023-04-18T00:18:10.606Z,459.09
2023-04-18T00:18:21.585Z,459.10
2023-04-18T00:18:32.583Z,459.12
2023-04-18T00:18:43.595Z,459.13
2023-04-18T00:18:54.593Z,459.10
2023-04-18T00:19:05.587Z,459.06
2023-04-18T00:19:16.595Z,459.00
2023-04-18T00:19:27.580Z,459.00
2023-04-18T00:19:38.583Z,459.04
2023-04-18T00:19:49.566Z,459.13
2023-04-18T00:20:00.578Z,459.17
2023-04-18T00:20:11.562Z,459.24
2023-04-18T00:20:22.562Z,459.28
2023-04-18T00:20:33.636Z,459.32
2023-04-18T00:20:45.615Z,459.35
2023-04-18T00:20:56.609Z,459.37
2023-04-18T00:21:07.601Z,459.36
2023-04-18T00:21:18.605Z,459.36
2023-04-18T00:21:29.599Z,459.34
2023-04-18T00:21:40.583Z,459.26
2023-04-18T00:21:51.586Z,459.27
2023-04-18T00:22:02.583Z,459.35
2023-04-18T00:22:13.588Z,459.42
2023-04-18T00:22:24.579Z,459.48
2023-04-18T00:22:35.566Z,459.49
2023-04-18T00:22:46.725Z,459.51
2023-04-18T00:22:57.581Z,459.53
2023-04-18T00:23:08.586Z,459.49
2023-04-18T00:23:19.596Z,459.49
2023-04-18T00:23:30.586Z,459.56
2023-04-18T00:23:41.574Z,459.56
2023-04-18T00:23:52.567Z,459.52
2023-04-18T00:24:03.549Z,459.48
2023-04-18T00:24:14.854Z,459.49
2023-04-18T00:24:26.618Z,459.53
2023-04-18T00:24:38.577Z,459.57
2023-04-18T00:24:49.570Z,459.53
2023-04-18T00:25:00.571Z,459.55
2023-04-18T00:25:11.593Z,459.62
2023-04-18T00:25:22.585Z,459.58
2023-04-18T00:25:33.589Z,459.43
2023-04-18T00:25:44.605Z,459.27
2023-04-18T00:25:55.596Z,459.29
2023-04-18T00:26:06.590Z,459.39
2023-04-18T00:26:17.592Z,459.49
2023-04-18T00:26:28.586Z,459.52
2023-04-18T00:26:39.568Z,459.53
2023-04-18T00:26:50.562Z,459.50
2023-04-18T00:27:01.549Z,459.34
2023-04-18T00:27:12.649Z,459.27
2023-04-18T00:27:24.619Z,459.55
2023-04-18T00:27:36.577Z,459.62
2023-04-18T00:27:47.560Z,459.57
2023-04-18T00:27:58.559Z,459.55
2023-04-18T00:28:09.557Z,459.59
2023-04-18T00:28:20.645Z,459.66
2023-04-18T00:28:32.600Z,459.62
2023-04-18T00:28:43.609Z,459.70
2023-04-18T00:28:54.606Z,459.68
2023-04-18T00:29:05.589Z,459.66
2023-04-18T00:29:16.580Z,459.73
2023-04-18T00:29:27.576Z,459.72
2023-04-18T00:29:38.596Z,459.68
2023-04-18T00:29:49.607Z,459.75
2023-04-18T00:30:00.600Z,459.83
2023-04-18T00:30:11.610Z,459.87
2023-04-18T00:30:22.614Z,459.82
2023-04-18T00:30:34.624Z,459.77
2023-04-18T00:30:46.603Z,459.72
2023-04-18T00:30:58.640Z,459.70
2023-04-18T00:31:09.645Z,459.79
2023-04-18T00:31:20.620Z,459.84
2023-04-18T00:31:32.590Z,459.83
2023-04-18T00:31:43.590Z,459.86
2023-04-18T00:31:54.573Z,459.90
2023-04-18T00:32:05.591Z,459.86
2023-04-18T00:32:16.589Z,459.78
2023-04-18T00:32:27.633Z,459.77
2023-04-18T00:32:38.612Z,459.71
2023-04-18T00:32:49.645Z,459.66
2023-04-18T00:33:01.683Z,459.74
2023-04-18T00:33:12.603Z,459.79
2023-04-18T00:33:23.629Z,459.75
2023-04-18T00:33:35.586Z,459.66
2023-04-18T00:33:46.589Z,459.61
2023-04-18T00:33:57.571Z,459.63
2023-04-18T00:34:08.565Z,459.63
2023-04-18T00:34:19.565Z,459.64
2023-04-18T00:34:30.570Z,459.71
2023-04-18T00:34:41.561Z,459.75
2023-04-18T00:34:52.656Z,459.71
2023-04-18T00:35:04.606Z,459.68
2023-04-18T00:35:16.605Z,459.60
2023-04-18T00:35:27.603Z,459.62
2023-04-18T00:35:38.590Z,459.66
2023-04-18T00:35:49.579Z,459.59
2023-04-18T00:36:01.587Z,459.51
2023-04-18T00:36:12.575Z,459.48
2023-04-18T00:36:23.645Z,459.48
2023-04-18T00:36:34.638Z,459.52
2023-04-18T00:36:46.615Z,459.54
2023-04-18T00:36:57.593Z,459.53
2023-04-18T00:37:08.591Z,459.47
2023-04-18T00:37:19.634Z,459.46
2023-04-18T00:37:31.589Z,459.47
2023-04-18T00:37:42.599Z,459.46
2023-04-18T00:37:53.614Z,459.43
2023-04-18T00:38:04.612Z,459.36
2023-04-18T00:38:15.614Z,459.41
2023-04-18T00:38:26.598Z,459.47
2023-04-18T00:38:37.587Z,459.52
2023-04-18T00:38:48.582Z,459.46
2023-04-18T00:38:59.581Z,459.39
2023-04-18T00:39:10.580Z,459.42
2023-04-18T00:39:21.609Z,459.47
2023-04-18T00:39:32.608Z,459.48
2023-04-18T00:39:43.599Z,459.42
2023-04-18T00:39:54.594Z,459.44
2023-04-18T00:40:05.620Z,459.48
2023-04-18T00:40:17.610Z,459.47
2023-04-18T00:40:28.610Z,459.46
2023-04-18T00:40:39.600Z,459.44
2023-04-18T00:40:50.613Z,459.45
2023-04-18T00:41:02.628Z,459.49
2023-04-18T00:41:13.610Z,459.51
2023-04-18T00:41:24.603Z,459.47
2023-04-18T00:41:35.593Z,459.43
2023-04-18T00:41:46.576Z,459.35
2023-04-18T00:41:57.568Z,459.27
2023-04-18T00:42:08.547Z,459.24
2023-04-18T00:42:19.560Z,459.30
2023-04-18T00:42:30.647Z,459.49
2023-04-18T00:42:42.605Z,459.55
2023-04-18T00:42:53.596Z,459.57
2023-04-18T00:43:04.597Z,459.48
2023-04-18T00:43:15.602Z,459.41
2023-04-18T00:43:26.582Z,459.48
2023-04-18T00:43:37.570Z,459.50
2023-04-18T00:43:48.575Z,459.48
2023-04-18T00:43:59.562Z,459.48
2023-04-18T00:44:10.572Z,459.51
2023-04-18T00:44:21.570Z,459.54
2023-04-18T00:44:32.559Z,459.54
2023-04-18T00:44:43.576Z,459.56
2023-04-18T00:44:54.565Z,459.57
2023-04-18T00:45:05.670Z,459.57
2023-04-18T00:45:17.640Z,459.52
2023-04-18T00:45:29.612Z,459.51
2023-04-18T00:45:40.595Z,459.50
2023-04-18T00:45:51.601Z,459.52
2023-04-18T00:46:02.651Z,459.56
2023-04-18T00:46:14.634Z,459.56
2023-04-18T00:46:26.626Z,459.53
2023-04-18T00:46:38.645Z,459.51
2023-04-18T00:46:50.629Z,459.49
2023-04-18T00:47:02.641Z,459.49
2023-04-18T00:47:14.590Z,459.49
2023-04-18T00:47:25.591Z,459.45
2023-04-18T00:47:36.695Z,459.48
2023-04-18T00:47:47.665Z,459.52
2023-04-18T00:47:58.594Z,459.56
2023-04-18T00:48:09.616Z,459.54
2023-04-18T00:48:21.573Z,459.56
2023-04-18T00:48:32.553Z,459.52
2023-04-18T00:48:43.639Z,459.52
2023-04-18T00:48:55.600Z,459.51
2023-04-18T00:49:06.613Z,459.46
2023-04-18T00:49:17.609Z,459.38
2023-04-18T00:49:28.580Z,459.38
2023-04-18T00:49:39.594Z,459.42
2023-04-18T00:49:50.598Z,459.47
2023-04-18T00:50:01.605Z,459.51
2023-04-18T00:50:13.569Z,459.51
2023-04-18T00:50:24.563Z,459.56
2023-04-18T00:50:35.592Z,459.53
2023-04-18T00:50:46.607Z,459.56
2023-04-18T00:50:57.592Z,459.58
2023-04-18T00:51:08.582Z,459.64
2023-04-18T00:51:19.569Z,459.65
2023-04-18T00:51:30.557Z,459.68
2023-04-18T00:51:41.552Z,459.71
2023-04-18T00:51:52.546Z,459.68
2023-04-18T00:52:03.642Z,459.72
2023-04-18T00:52:15.600Z,459.72
2023-04-18T00:52:26.588Z,459.73
2023-04-18T00:52:37.591Z,459.81
2023-04-18T00:52:48.603Z,459.78
2023-04-18T00:52:59.596Z,459.71
2023-04-18T00:53:10.578Z,459.62
2023-04-18T00:53:21.572Z,459.64
2023-04-18T00:53:32.586Z,459.79
2023-04-18T00:53:43.571Z,459.85
2023-04-18T00:53:54.576Z,459.88
2023-04-18T00:54:06.284Z,459.78
2023-04-18T00:54:17.582Z,459.81
2023-04-18T00:54:28.562Z,459.80
2023-04-18T00:54:39.559Z,459.77
2023-04-18T00:54:50.545Z,459.73
2023-04-18T00:55:01.654Z,459.72
2023-04-18T00:55:13.596Z,459.76
2023-04-18T00:55:24.594Z,459.84
2023-04-18T00:55:35.576Z,459.78
2023-04-18T00:55:46.611Z,459.73
2023-04-18T00:55:57.598Z,459.68
2023-04-18T00:56:08.588Z,459.79
2023-04-18T00:56:19.612Z,459.82
2023-04-18T00:56:30.646Z,459.86
2023-04-18T00:56:42.621Z,459.85
2023-04-18T00:56:53.606Z,459.81
2023-04-18T00:57:04.614Z,459.76
2023-04-18T00:57:15.615Z,459.78
2023-04-18T00:57:26.610Z,459.89
2023-04-18T00:57:38.635Z,459.86
2023-04-18T00:57:50.582Z,459.85
2023-04-18T00:58:01.581Z,459.83
2023-04-18T00:58:12.571Z,459.81
2023-04-18T00:58:23.566Z,459.73
2023-04-18T00:58:34.550Z,459.74
2023-04-18T00:58:45.587Z,459.79
2023-04-18T00:58:56.595Z,459.81
2023-04-18T00:59:07.590Z,459.80
2023-04-18T00:59:18.603Z,459.91
2023-04-18T00:59:29.594Z,459.93
2023-04-18T00:59:40.611Z,459.91
2023-04-18T00:59:52.593Z,459.92
2023-04-18T01:00:03.638Z,459.87
2023-04-18T01:00:15.604Z,459.84
2023-04-18T01:00:26.618Z,459.91
2023-04-18T01:00:38.588Z,459.95
2023-04-18T01:00:49.571Z,460.05
2023-04-18T01:01:00.572Z,460.08
2023-04-18T01:01:11.598Z,459.96
2023-04-18T01:01:22.692Z,459.97
2023-04-18T01:01:33.750Z,459.99
2023-04-18T01:01:44.683Z,460.01
2023-04-18T01:01:56.772Z,460.03
2023-04-18T01:02:07.664Z,460.10
2023-04-18T01:02:18.677Z,460.10
2023-04-18T01:02:29.696Z,460.16
2023-04-18T01:02:40.720Z,460.12
2023-04-18T01:02:52.668Z,460.05
2023-04-18T01:03:04.726Z,460.12
2023-04-18T01:03:15.696Z,460.20
2023-04-18T01:03:27.773Z,460.21
2023-04-18T01:03:39.861Z,460.29
2023-04-18T01:03:50.734Z,460.24
2023-04-18T01:04:01.727Z,460.26
2023-04-18T01:04:13.960Z,460.23
2023-04-18T01:04:25.668Z,460.23
2023-04-18T01:04:37.704Z,460.24
2023-04-18T01:04:49.577Z,460.24
2023-04-18T01:05:00.570Z,460.24
2023-04-18T01:05:11.566Z,460.22
2023-04-18T01:05:22.554Z,460.20
2023-04-18T01:05:33.550Z,460.17
2023-04-18T01:05:44.635Z,460.15
2023-04-18T01:05:56.584Z,460.10
2023-04-18T01:06:07.582Z,460.11
2023-04-18T01:06:18.614Z,460.15
2023-04-18T01:06:30.611Z,460.18
2023-04-18T01:06:41.604Z,460.22
2023-04-18T01:06:52.618Z,460.26
2023-04-18T01:07:04.596Z,460.19
2023-04-18T01:07:16.581Z,460.22
2023-04-18T01:07:27.577Z,460.35
2023-04-18T01:07:38.564Z,460.30
2023-04-18T01:07:49.560Z,460.22
2023-04-18T01:08:00.648Z,460.31
2023-04-18T01:08:12.617Z,460.18
2023-04-18T01:08:24.575Z,460.15
2023-04-18T01:08:35.565Z,460.19
2023-04-18T01:08:46.558Z,460.23
2023-04-18T01:08:57.583Z,460.26
2023-04-18T01:09:08.635Z,460.31
2023-04-18T01:09:20.603Z,460.19
2023-04-18T01:09:31.595Z,460.11
2023-04-18T01:09:42.590Z,460.08
2023-04-18T01:09:53.584Z,460.05
2023-04-18T01:10:04.581Z,460.12
2023-04-18T01:10:15.567Z,460.10
2023-04-18T01:10:26.560Z,460.16
2023-04-18T01:10:37.651Z,460.23
2023-04-18T01:10:49.610Z,460.17
2023-04-18T01:11:00.600Z,460.17
2023-04-18T01:11:11.593Z,460.19
2023-04-18T01:11:22.588Z,460.33
2023-04-18T01:11:33.578Z,460.35
2023-04-18T01:11:44.605Z,460.24
2023-04-18T01:11:55.602Z,460.22
2023-04-18T01:12:06.589Z,460.27
2023-04-18T01:12:17.591Z,460.31
2023-04-18T01:12:28.573Z,460.27
2023-04-18T01:12:39.579Z,460.23
2023-04-18T01:12:50.564Z,460.28
2023-04-18T01:13:01.558Z,460.34
2023-04-18T01:13:12.651Z,460.41
2023-04-18T01:13:24.623Z,460.54
2023-04-18T01:13:35.617Z,460.50
2023-04-18T01:13:46.608Z,460.50
2023-04-18T01:13:57.597Z,460.51
2023-04-18T01:14:08.590Z,460.55
2023-04-18T01:14:19.584Z,460.53
2023-04-18T01:14:30.577Z,460.56
2023-04-18T01:14:41.557Z,460.57
2023-04-18T01:14:52.553Z,460.63
2023-04-18T01:15:03.651Z,460.62
2023-04-18T01:15:15.599Z,460.65
2023-04-18T01:15:26.630Z,460.68
2023-04-18T01:15:37.655Z,460.71
2023-04-18T01:15:48.646Z,460.75
2023-04-18T01:15:59.670Z,460.73
2023-04-18T01:16:11.710Z,460.75
2023-04-18T01:16:23.680Z,460.83
2023-04-18T01:16:35.589Z,460.82
2023-04-18T01:16:46.597Z,460.81
2023-04-18T01:16:57.591Z,460.85
2023-04-18T01:17:08.588Z,460.84
2023-04-18T01:17:19.610Z,460.86
2023-04-18T01:17:31.612Z,460.77
2023-04-18T01:17:42.607Z,460.68
2023-04-18T01:17:53.696Z,460.61
2023-04-18T01:18:05.585Z,460.62
2023-04-18T01:18:16.578Z,460.73
2023-04-18T01:18:27.592Z,460.80
2023-04-18T01:18:38.584Z,460.75
2023-04-18T01:18:49.568Z,460.72
2023-04-18T01:19:00.544Z,460.79
2023-04-18T01:19:11.523Z,460.88
2023-04-18T01:19:22.599Z,460.83
2023-04-18T01:19:33.581Z,460.78
2023-04-18T01:19:44.552Z,460.77
2023-04-18T01:19:55.565Z,460.73
2023-04-18T01:20:06.560Z,460.70
2023-04-18T01:20:17.532Z,460.73
2023-04-18T01:20:28.620Z,460.74
2023-04-18T01:20:40.559Z,460.80
2023-04-18T01:20:51.551Z,460.86
2023-04-18T01:21:02.528Z,460.92
2023-04-18T01:21:13.594Z,460.88
2023-04-18T01:21:24.587Z,460.99
2023-04-18T01:21:35.562Z,461.02
2023-04-18T01:21:46.548Z,460.79
2023-04-18T01:21:57.532Z,460.67
2023-04-18T01:22:08.639Z,460.64
2023-04-18T01:22:20.580Z,460.90
2023-04-18T01:22:31.566Z,460.74
2023-04-18T01:22:42.540Z,460.87
2023-04-18T01:22:53.616Z,460.91
2023-04-18T01:23:05.574Z,460.79
2023-04-18T01:23:16.564Z,460.73
2023-04-18T01:23:27.572Z,460.76
2023-04-18T01:23:38.558Z,460.78
2023-04-18T01:23:49.529Z,460.72
2023-04-18T01:24:00.603Z,460.61
2023-04-18T01:24:11.901Z,460.76
2023-04-18T01:24:23.603Z,460.86
2023-04-18T01:24:34.581Z,460.82
2023-04-18T01:24:45.572Z,460.80
2023-04-18T01:24:56.553Z,460.73
2023-04-18T01:25:07.550Z,460.72
2023-04-18T01:25:18.527Z,460.75
2023-04-18T01:25:29.605Z,460.77
2023-04-18T01:25:41.555Z,460.76
2023-04-18T01:25:52.533Z,460.67
2023-04-18T01:26:03.615Z,460.64
2023-04-18T01:26:15.564Z,460.73
2023-04-18T01:26:26.540Z,460.83
2023-04-18T01:26:37.527Z,460.90
2023-04-18T01:26:48.612Z,460.81
2023-04-18T01:27:00.562Z,460.85
2023-04-18T01:27:11.538Z,460.81
2023-04-18T01:27:22.530Z,460.81
2023-04-18T01:27:33.519Z,460.99
2023-04-18T01:27:44.601Z,460.91
2023-04-18T01:27:56.561Z,460.89
2023-04-18T01:28:07.536Z,460.86
2023-04-18T01:28:18.525Z,460.79
2023-04-18T01:28:29.596Z,460.75
2023-04-18T01:28:40.580Z,460.73
2023-04-18T01:28:51.568Z,460.66
2023-04-18T01:29:02.548Z,460.67
2023-04-18T01:29:13.529Z,460.69
2023-04-18T01:29:24.644Z,460.64
2023-04-18T01:29:37.870Z,460.71
2023-04-18T01:29:48.577Z,460.58
2023-04-18T01:29:59.595Z,460.44
2023-04-18T01:30:10.590Z,460.47
2023-04-18T01:30:21.575Z,460.57
2023-04-18T01:30:32.558Z,460.64
2023-04-18T01:30:43.542Z,460.62
2023-04-18T01:30:54.660Z,460.65
2023-04-18T01:31:06.658Z,460.56
2023-04-18T01:31:17.648Z,460.46
2023-04-18T01:31:28.591Z,460.43
2023-04-18T01:31:39.619Z,460.51
2023-04-18T01:31:50.575Z,460.53
2023-04-18T01:32:01.582Z,460.56
2023-04-18T01:32:12.565Z,460.58
2023-04-18T01:32:23.553Z,460.58
2023-04-18T01:32:34.564Z,460.59
2023-04-18T01:32:45.558Z,460.60
2023-04-18T01:32:56.597Z,460.58
2023-04-18T01:33:07.576Z,460.64
2023-04-18T01:33:18.579Z,460.56
2023-04-18T01:33:29.574Z,460.53
2023-04-18T01:33:40.686Z,460.58
2023-04-18T01:33:51.558Z,460.62
2023-04-18T01:34:02.521Z,460.60
2023-04-18T01:34:13.823Z,460.62
2023-04-18T01:34:25.574Z,460.57
2023-04-18T01:34:36.553Z,460.59
2023-04-18T01:34:47.583Z,460.62
2023-04-18T01:34:59.580Z,460.64
2023-04-18T01:35:11.548Z,460.72
2023-04-18T01:35:22.533Z,460.78
2023-04-18T01:35:33.617Z,460.82
2023-04-18T01:35:45.570Z,460.73
2023-04-18T01:35:56.538Z,460.62
2023-04-18T01:36:07.524Z,460.58
2023-04-18T01:36:18.610Z,460.83
2023-04-18T01:36:30.549Z,460.81
2023-04-18T01:36:41.545Z,460.83
2023-04-18T01:36:52.621Z,460.84
2023-04-18T01:37:04.579Z,460.80
2023-04-18T01:37:15.553Z,460.76
2023-04-18T01:37:26.538Z,460.67
2023-04-18T01:37:37.528Z,460.61
2023-04-18T01:37:48.610Z,460.63
2023-04-18T01:38:00.599Z,460.75
2023-04-18T01:38:12.590Z,460.76
2023-04-18T01:38:23.563Z,460.74
2023-04-18T01:38:34.545Z,460.69
2023-04-18T01:38:45.620Z,460.72
2023-04-18T01:38:57.562Z,460.69
2023-04-18T01:39:08.530Z,460.73
2023-04-18T01:39:19.530Z,460.69
2023-04-18T01:39:30.618Z,460.70
2023-04-18T01:39:42.571Z,460.67
2023-04-18T01:39:53.548Z,460.76
2023-04-18T01:40:04.528Z,460.89
2023-04-18T01:40:15.621Z,460.88
2023-04-18T01:40:27.558Z,460.95
2023-04-18T01:40:38.580Z,460.89
2023-04-18T01:40:49.558Z,461.01
2023-04-18T01:41:00.540Z,460.96
2023-04-18T01:41:11.621Z,460.85
2023-04-18T01:41:23.566Z,460.76
2023-04-18T01:41:34.548Z,460.90
2023-04-18T01:41:45.527Z,461.06
2023-04-18T01:41:56.622Z,461.08
2023-04-18T01:42:08.571Z,461.07
2023-04-18T01:42:19.539Z,461.07
2023-04-18T01:42:30.615Z,461.06
2023-04-18T01:42:42.555Z,461.12
2023-04-18T01:42:53.527Z,461.13
2023-04-18T01:43:04.597Z,461.13
2023-04-18T01:43:16.547Z,461.11
2023-04-18T01:43:27.535Z,461.07
2023-04-18T01:43:38.612Z,461.02
2023-04-18T01:43:50.554Z,461.02
2023-04-18T01:44:01.608Z,461.01
2023-04-18T01:44:12.762Z,461.05
2023-04-18T01:44:23.628Z,461.15
2023-04-18T01:44:35.590Z,461.12
2023-04-18T01:44:46.558Z,461.18
2023-04-18T01:44:57.542Z,461.25
2023-04-18T01:45:08.618Z,461.26
2023-04-18T01:45:20.560Z,461.30
2023-04-18T01:45:31.560Z,461.38
2023-04-18T01:45:42.528Z,461.40
2023-04-18T01:45:53.609Z,461.43
2023-04-18T01:46:05.595Z,461.41
2023-04-18T01:46:17.601Z,461.42
2023-04-18T01:46:29.614Z,461.57
2023-04-18T01:46:41.626Z,461.65
2023-04-18T01:46:53.675Z,461.59
2023-04-18T01:47:05.592Z,461.54
2023-04-18T01:47:16.601Z,461.56
2023-04-18T01:47:28.613Z,461.48
2023-04-18T01:47:40.580Z,461.51
2023-04-18T01:47:51.580Z,461.61
2023-04-18T01:48:03.590Z,461.60
2023-04-18T01:48:14.566Z,461.71
2023-04-18T01:48:25.542Z,461.75
2023-04-18T01:48:36.626Z,461.78
2023-04-18T01:48:48.559Z,461.75
2023-04-18T01:48:59.531Z,461.74
2023-04-18T01:49:10.605Z,461.76
2023-04-18T01:49:22.557Z,461.73
2023-04-18T01:49:33.547Z,461.75
2023-04-18T01:49:44.508Z,461.76
2023-04-18T01:49:55.601Z,461.70
2023-04-18T01:50:07.556Z,461.67
2023-04-18T01:50:18.580Z,461.63
2023-04-18T01:50:29.567Z,461.76
2023-04-18T01:50:40.550Z,461.76
2023-04-18T01:50:51.533Z,461.69
2023-04-18T01:51:02.607Z,461.70
2023-04-18T01:51:13.582Z,461.82
2023-04-18T01:51:24.578Z,461.86
2023-04-18T01:51:35.570Z,461.85
2023-04-18T01:51:46.553Z,461.84
2023-04-18T01:51:57.538Z,461.81
2023-04-18T01:52:08.632Z,461.85
2023-04-18T01:52:20.589Z,461.87
2023-04-18T01:52:31.574Z,461.99
2023-04-18T01:52:42.556Z,462.04
2023-04-18T01:52:53.537Z,462.12
2023-04-18T01:53:04.619Z,462.07
2023-04-18T01:53:16.555Z,462.07
2023-04-18T01:53:27.526Z,462.07
2023-04-18T01:53:38.528Z,462.06
2023-04-18T01:53:49.615Z,462.11
2023-04-18T01:54:01.582Z,462.08
2023-04-18T01:54:12.860Z,462.06
2023-04-18T01:54:23.561Z,462.09
2023-04-18T01:54:34.553Z,462.08
2023-04-18T01:54:45.533Z,462.18
2023-04-18T01:54:56.539Z,462.12
2023-04-18T01:55:07.618Z,462.05
2023-04-18T01:55:19.578Z,462.09
2023-04-18T01:55:30.554Z,462.12
2023-04-18T01:55:41.538Z,462.19
2023-04-18T01:55:52.524Z,462.25
2023-04-18T01:56:03.619Z,462.27
2023-04-18T01:56:15.584Z,462.24
2023-04-18T01:56:26.577Z,462.26
2023-04-18T01:56:37.571Z,462.30
2023-04-18T01:56:48.551Z,462.31
2023-04-18T01:56:59.535Z,462.32
2023-04-18T01:57:10.613Z,462.30
2023-04-18T01:57:22.563Z,462.27
2023-04-18T01:57:33.532Z,462.25
2023-04-18T01:57:44.523Z,462.25
2023-04-18T01:57:55.605Z,462.26
2023-04-18T01:58:07.561Z,462.29
2023-04-18T01:58:18.541Z,462.32
2023-04-18T01:58:29.556Z,462.34
2023-04-18T01:58:40.534Z,462.31
2023-04-18T01:58:51.652Z,462.37
2023-04-18T01:59:03.595Z,462.37
2023-04-18T01:59:14.583Z,462.38
2023-04-18T01:59:25.580Z,462.39
2023-04-18T01:59:36.571Z,462.37
2023-04-18T01:59:47.586Z,462.36
2023-04-18T01:59:58.588Z,462.35
2023-04-18T02:00:09.570Z,462.36
2023-04-18T02:00:20.545Z,462.36
2023-04-18T02:00:31.555Z,462.39
2023-04-18T02:00:42.613Z,462.33
2023-04-18T02:00:53.681Z,462.28
2023-04-18T02:01:05.560Z,462.37
2023-04-18T02:01:16.615Z,462.41
2023-04-18T02:01:28.585Z,462.45
2023-04-18T02:01:39.564Z,462.47
2023-04-18T02:01:50.582Z,462.41
2023-04-18T02:02:01.652Z,462.47
2023-04-18T02:02:13.718Z,462.47
2023-04-18T02:02:25.739Z,462.56
2023-04-18T02:02:37.745Z,462.56
2023-04-18T02:02:48.675Z,462.44
2023-04-18T02:03:00.693Z,462.41
2023-04-18T02:03:12.775Z,462.44
2023-04-18T02:03:23.724Z,462.42
2023-04-18T02:03:35.778Z,462.31
2023-04-18T02:03:47.740Z,462.20
2023-04-18T02:03:59.763Z,462.24
2023-04-18T02:04:10.594Z,462.29
2023-04-18T02:04:22.592Z,462.21
2023-04-18T02:04:34.563Z,462.16
2023-04-18T02:04:45.517Z,462.24
2023-04-18T02:04:56.527Z,462.27
2023-04-18T02:05:07.612Z,462.26
2023-04-18T02:05:19.558Z,462.27
2023-04-18T02:05:30.534Z,462.27
2023-04-18T02:05:41.609Z,462.31
2023-04-18T02:05:53.568Z,462.38
2023-04-18T02:06:04.551Z,462.41
2023-04-18T02:06:15.544Z,462.43
2023-04-18T02:06:26.546Z,462.43
2023-04-18T02:06:37.534Z,462.45
2023-04-18T02:06:48.610Z,462.42
2023-04-18T02:06:59.613Z,462.33
2023-04-18T02:07:11.558Z,462.48
2023-04-18T02:07:22.560Z,462.56
2023-04-18T02:07:33.536Z,462.62
2023-04-18T02:07:44.609Z,462.63
2023-04-18T02:07:56.555Z,462.60
2023-04-18T02:08:07.529Z,462.62
2023-04-18T02:08:18.615Z,462.65
2023-04-18T02:08:30.564Z,462.70
2023-04-18T02:08:41.543Z,462.71
2023-04-18T02:08:52.534Z,462.78
2023-04-18T02:09:03.617Z,462.86
2023-04-18T02:09:15.558Z,462.88
2023-04-18T02:09:26.539Z,462.83
2023-04-18T02:09:37.626Z,462.83
2023-04-18T02:09:49.595Z,462.84
2023-04-18T02:10:00.571Z,462.85
2023-04-18T02:10:11.552Z,462.87
2023-04-18T02:10:22.530Z,462.84
2023-04-18T02:10:33.604Z,462.86
2023-04-18T02:10:44.583Z,462.97
2023-04-18T02:10:55.571Z,462.99
2023-04-18T02:11:06.546Z,462.99
2023-04-18T02:11:17.529Z,463.05
2023-04-18T02:11:28.614Z,463.06
2023-04-18T02:11:40.555Z,463.06
2023-04-18T02:11:51.552Z,463.09
2023-04-18T02:12:02.637Z,463.08
2023-04-18T02:12:14.572Z,463.11
2023-04-18T02:12:25.554Z,463.19
2023-04-18T02:12:36.526Z,463.28
2023-04-18T02:12:47.604Z,463.26
2023-04-18T02:12:59.556Z,463.23
2023-04-18T02:13:10.569Z,463.18
2023-04-18T02:13:21.545Z,463.16
2023-04-18T02:13:32.624Z,463.21
2023-04-18T02:13:44.578Z,463.25
2023-04-18T02:13:55.559Z,463.27
2023-04-18T02:14:06.545Z,463.31
2023-04-18T02:14:17.621Z,463.23
2023-04-18T02:14:29.560Z,463.45
2023-04-18T02:14:40.596Z,463.60
2023-04-18T02:14:51.574Z,463.63
2023-04-18T02:15:02.564Z,463.69
2023-04-18T02:15:13.540Z,463.74
2023-04-18T02:15:24.606Z,463.63
2023-04-18T02:15:36.573Z,463.56
2023-04-18T02:15:47.550Z,463.54
2023-04-18T02:15:58.590Z,463.44
2023-04-18T02:16:09.625Z,463.52
2023-04-18T02:16:21.618Z,463.57
2023-04-18T02:16:32.572Z,463.52
2023-04-18T02:16:43.562Z,463.52
2023-04-18T02:16:54.613Z,463.49
2023-04-18T02:17:06.583Z,463.46
2023-04-18T02:17:17.571Z,463.39
2023-04-18T02:17:28.571Z,463.34
2023-04-18T02:17:39.567Z,463.46
2023-04-18T02:17:50.580Z,463.49
2023-04-18T02:18:01.595Z,463.38
2023-04-18T02:18:13.570Z,463.34
2023-04-18T02:18:24.569Z,463.33
2023-04-18T02:18:35.559Z,463.45
2023-04-18T02:18:46.534Z,463.56
2023-04-18T02:18:57.619Z,463.47
2023-04-18T02:19:09.557Z,463.37
2023-04-18T02:19:20.537Z,463.49
2023-04-18T02:19:31.622Z,463.59
2023-04-18T02:19:43.579Z,463.59
2023-04-18T02:19:54.564Z,463.50